Time,TemperatureF,DewpointF,PressureIn,WindDirection,WindDirectionDegrees,WindSpeedMPH,WindSpeedGustMPH,Humidity,HourlyPrecipIn,Conditions,Clouds,dailyrainin,SoftwareType,DateUTC
2014-08-27 00:00:00,68.9,67.1,30.03,North,5,5.0,13.0,94,0.00,,,0.00,Wunderground v.1.15,2014-08-27 05:00:00,
2014-08-27 00:05:00,68.8,67.0,30.03,NNW,337,5.0,13.0,94,0.00,,,0.00,Wunderground v.1.15,2014-08-27 05:05:00,
2014-08-27 00:15:00,68.6,66.8,30.03,NNE,30,5.0,13.0,94,0.00,,,0.00,Wunderground v.1.15,2014-08-27 05:15:00,
2014-08-27 00:20:00,68.5,66.7,30.04,NNE,21,5.0,5.0,94,0.00,,,0.00,Wunderground v.1.15,2014-08-27 05:20:00,
2014-08-27 00:25:00,68.5,66.7,30.03,NNE,12,5.0,13.0,94,0.00,,,0.00,Wunderground v.1.15,2014-08-27 05:25:00,
2014-08-27 00:35:00,68.4,66.6,30.03,North,355,5.0,13.0,94,0.00,,,0.00,Wunderground v.1.15,2014-08-27 05:35:00,
2014-08-27 00:40:00,68.3,66.5,30.03,East,80,5.0,5.0,94,0.00,,,0.00,Wunderground v.1.15,2014-08-27 05:40:00,
2014-08-27 00:45:00,68.3,66.5,30.03,NNW,348,5.0,6.0,94,0.00,,,0.00,Wunderground v.1.15,2014-08-27 05:45:00,
2014-08-27 00:50:00,68.1,66.3,30.03,NNE,13,5.0,13.0,94,0.00,,,0.00,Wunderground v.1.15,2014-08-27 05:50:00,
2014-08-27 00:55:00,68.1,66.3,30.03,NNW,348,5.0,13.0,94,0.00,,,0.00,Wunderground v.1.15,2014-08-27 05:55:00,
2014-08-27 01:05:00,68.1,66.6,30.03,NNE,24,5.0,13.0,95,0.00,,,0.00,Wunderground v.1.15,2014-08-27 06:05:00,
2014-08-27 01:10:00,68.1,66.6,30.03,North,10,5.0,13.0,95,0.00,,,0.00,Wunderground v.1.15,2014-08-27 06:10:00,
2014-08-27 01:20:00,68.0,66.5,30.03,NE,36,5.0,13.0,95,0.00,,,0.00,Wunderground v.1.15,2014-08-27 06:20:00,
2014-08-27 01:25:00,67.9,66.4,30.03,NE,46,5.0,13.0,95,0.00,,,0.00,Wunderground v.1.15,2014-08-27 06:25:00,
2014-08-27 01:30:00,67.9,66.4,30.03,NNE,17,5.0,5.0,95,0.00,,,0.00,Wunderground v.1.15,2014-08-27 06:30:00,
2014-08-27 01:40:00,67.6,66.1,30.03,NNE,19,3.0,3.0,95,0.00,,,0.00,Wunderground v.1.15,2014-08-27 06:40:00,
2014-08-27 01:45:00,67.6,66.1,30.03,NW,310,2.0,13.0,95,0.00,,,0.00,Wunderground v.1.15,2014-08-27 06:45:00,
2014-08-27 01:50:00,67.5,66.0,30.03,North,355,3.0,13.0,95,0.00,,,0.00,Wunderground v.1.15,2014-08-27 06:50:00,
2014-08-27 01:55:00,67.4,65.9,30.03,North,5,4.0,13.0,95,0.00,,,0.00,Wunderground v.1.15,2014-08-27 06:55:00,
2014-08-27 02:00:00,67.4,65.9,30.02,NNE,32,5.0,13.0,95,0.00,,,0.00,Wunderground v.1.15,2014-08-27 07:00:00,
2014-08-27 02:05:00,67.4,65.9,30.02,North,349,5.0,13.0,95,0.00,,,0.00,Wunderground v.1.15,2014-08-27 07:05:00,
2014-08-27 02:15:00,67.3,65.8,30.02,NNE,32,5.0,13.0,95,0.00,,,0.00,Wunderground v.1.15,2014-08-27 07:15:00,
2014-08-27 02:25:00,67.4,65.9,30.02,NE,41,5.0,13.0,95,0.00,,,0.00,Wunderground v.1.15,2014-08-27 07:25:00,
2014-08-27 02:30:00,67.4,65.9,30.01,ENE,58,6.0,6.0,95,0.00,,,0.00,Wunderground v.1.15,2014-08-27 07:30:00,
2014-08-27 02:35:00,67.4,65.9,30.01,NE,40,5.0,13.0,95,0.00,,,0.00,Wunderground v.1.15,2014-08-27 07:35:00,
2014-08-27 02:40:00,67.4,66.2,30.00,ENE,57,5.0,13.0,96,0.00,,,0.00,Wunderground v.1.15,2014-08-27 07:40:00,
2014-08-27 02:50:00,67.5,66.3,30.00,NE,43,6.0,13.0,96,0.00,,,0.00,Wunderground v.1.15,2014-08-27 07:50:00,
2014-08-27 02:55:00,67.5,66.0,30.01,NNE,31,6.0,13.0,95,0.00,,,0.00,Wunderground v.1.15,2014-08-27 07:55:00,
2014-08-27 03:00:00,67.4,65.9,30.00,NE,45,6.0,6.0,95,0.00,,,0.00,Wunderground v.1.15,2014-08-27 08:00:00,
2014-08-27 03:05:00,67.3,65.8,30.01,NNE,32,5.0,13.0,95,0.00,,,0.00,Wunderground v.1.15,2014-08-27 08:05:00,
2014-08-27 03:15:00,67.1,65.9,30.01,North,360,3.0,13.0,96,0.00,,,0.00,Wunderground v.1.15,2014-08-27 08:15:00,
2014-08-27 03:25:00,67.3,66.1,30.01,NNE,27,5.0,13.0,96,0.00,,,0.00,Wunderground v.1.15,2014-08-27 08:25:00,
2014-08-27 03:30:00,67.4,66.2,30.01,NNE,23,6.0,13.0,96,0.00,,,0.00,Wunderground v.1.15,2014-08-27 08:30:00,
2014-08-27 03:35:00,67.4,66.2,30.01,NE,55,6.0,13.0,96,0.00,,,0.00,Wunderground v.1.15,2014-08-27 08:35:00,
2014-08-27 03:40:00,67.4,66.2,30.01,NE,46,6.0,13.0,96,0.00,,,0.00,Wunderground v.1.15,2014-08-27 08:40:00,
2014-08-27 03:45:00,67.5,66.3,30.01,ENE,61,6.0,13.0,96,0.00,,,0.00,Wunderground v.1.15,2014-08-27 08:45:00,
2014-08-27 03:55:00,67.7,66.5,30.01,NNE,15,6.0,7.0,96,0.00,,,0.00,Wunderground v.1.15,2014-08-27 08:55:00,
2014-08-27 04:00:00,67.7,66.5,30.00,NE,36,7.0,13.0,96,0.00,,,0.00,Wunderground v.1.15,2014-08-27 09:00:00,
2014-08-27 04:05:00,67.7,66.5,30.00,NE,35,7.0,13.0,96,0.00,,,0.00,Wunderground v.1.15,2014-08-27 09:05:00,
2014-08-27 04:10:00,67.7,66.5,30.00,NE,44,7.0,13.0,96,0.00,,,0.00,Wunderground v.1.15,2014-08-27 09:10:00,
2014-08-27 04:20:00,67.8,66.6,29.99,NE,36,8.0,13.0,96,0.00,,,0.00,Wunderground v.1.15,2014-08-27 09:20:00,
2014-08-27 04:30:00,67.8,66.6,29.99,NE,34,8.0,8.0,96,0.00,,,0.00,Wunderground v.1.15,2014-08-27 09:30:00,
2014-08-27 06:00:00,67.9,66.7,30.00,North,349,3.0,13.0,96,0.00,,,0.00,Wunderground v.1.15,2014-08-27 11:00:00,
2014-08-27 06:10:00,67.9,66.7,29.99,ENE,67,6.0,13.0,96,0.00,,,0.00,Wunderground v.1.15,2014-08-27 11:10:00,
2014-08-27 06:15:00,67.9,66.7,29.99,ENE,63,7.0,13.0,96,0.00,,,0.00,Wunderground v.1.15,2014-08-27 11:15:00,
2014-08-27 06:20:00,67.8,66.6,29.99,NE,44,6.0,6.0,96,0.00,,,0.00,Wunderground v.1.15,2014-08-27 11:20:00,
2014-08-27 06:30:00,67.9,66.7,30.00,NE,53,5.0,13.0,96,0.00,,,0.00,Wunderground v.1.15,2014-08-27 11:30:00,
2014-08-27 06:35:00,67.9,66.7,29.99,NE,55,6.0,13.0,96,0.00,,,0.00,Wunderground v.1.15,2014-08-27 11:35:00,
2014-08-27 06:40:00,67.9,66.7,29.99,ENE,62,6.0,13.0,96,0.00,,,0.00,Wunderground v.1.15,2014-08-27 11:40:00,
2014-08-27 06:45:00,67.9,66.7,29.99,NE,39,5.0,13.0,96,0.00,,,0.00,Wunderground v.1.15,2014-08-27 11:45:00,
2014-08-27 06:50:00,67.9,66.7,29.99,NNE,28,5.0,5.0,96,0.00,,,0.00,Wunderground v.1.15,2014-08-27 11:50:00,
2014-08-27 06:55:00,67.9,66.7,29.99,NNE,16,5.0,13.0,96,0.00,,,0.00,Wunderground v.1.15,2014-08-27 11:55:00,
2014-08-27 07:05:00,67.9,66.7,30.01,NNE,19,3.0,13.0,96,0.00,,,0.00,Wunderground v.1.15,2014-08-27 12:05:00,
2014-08-27 07:15:00,67.9,67.0,30.02,NNW,337,1.0,13.0,97,0.00,,,0.00,Wunderground v.1.15,2014-08-27 12:15:00,
2014-08-27 07:20:00,67.9,67.0,30.02,SW,225,2.0,13.0,97,0.00,,,0.00,Wunderground v.1.15,2014-08-27 12:20:00,
2014-08-27 07:25:00,68.1,67.2,30.01,South,175,3.0,13.0,97,0.00,,,0.00,Wunderground v.1.15,2014-08-27 12:25:00,
2014-08-27 07:30:00,68.3,67.4,30.01,SE,141,4.0,13.0,97,0.00,,,0.00,Wunderground v.1.15,2014-08-27 12:30:00,
2014-08-27 07:40:00,68.6,67.7,30.01,NNE,21,4.0,4.0,97,0.00,,,0.00,Wunderground v.1.15,2014-08-27 12:40:00,
2014-08-27 07:45:00,68.6,67.7,30.01,NNE,14,3.0,13.0,97,0.00,,,0.01,Wunderground v.1.15,2014-08-27 12:45:00,
2014-08-27 07:50:00,68.5,67.6,30.00,NNE,28,3.0,13.0,97,0.00,,,0.01,Wunderground v.1.15,2014-08-27 12:50:00,
2014-08-27 07:55:00,68.5,67.6,30.00,NNE,28,2.0,13.0,97,0.00,,,0.01,Wunderground v.1.15,2014-08-27 12:55:00,
2014-08-27 08:00:00,68.5,67.6,30.00,ENE,65,3.0,3.0,97,0.00,,,0.01,Wunderground v.1.15,2014-08-27 13:00:00,
2014-08-27 08:10:00,68.5,67.6,30.00,East,80,2.0,13.0,97,0.00,,,0.01,Wunderground v.1.15,2014-08-27 13:10:00,
2014-08-27 08:20:00,68.6,67.7,30.00,East,92,2.0,13.0,97,0.00,,,0.01,Wunderground v.1.15,2014-08-27 13:20:00,
2014-08-27 08:25:00,68.8,67.9,30.00,ENE,63,2.0,13.0,97,0.00,,,0.01,Wunderground v.1.15,2014-08-27 13:25:00,
2014-08-27 08:30:00,68.9,68.0,30.00,NE,55,3.0,13.0,97,0.00,,,0.01,Wunderground v.1.15,2014-08-27 13:30:00,
2014-08-27 08:35:00,69.1,68.2,30.00,NE,55,3.0,13.0,97,0.00,,,0.01,Wunderground v.1.15,2014-08-27 13:35:00,
2014-08-27 08:45:00,69.5,68.6,30.01,ENE,57,4.0,13.0,97,0.00,,,0.01,Wunderground v.1.15,2014-08-27 13:45:00,
2014-08-27 08:50:00,69.6,68.7,30.01,North,355,4.0,4.0,97,0.00,,,0.01,Wunderground v.1.15,2014-08-27 13:50:00,
2014-08-27 08:55:00,69.7,68.8,30.01,NNE,27,3.0,13.0,97,0.00,,,0.01,Wunderground v.1.15,2014-08-27 13:55:00,
2014-08-27 09:00:00,69.8,68.9,30.02,North,9,3.0,13.0,97,0.00,,,0.01,Wunderground v.1.15,2014-08-27 14:00:00,
2014-08-27 09:05:00,69.7,68.8,30.02,NNE,14,4.0,13.0,97,0.00,,,0.01,Wunderground v.1.15,2014-08-27 14:05:00,
2014-08-27 09:10:00,69.7,68.8,30.02,NNE,27,4.0,13.0,97,0.00,,,0.01,Wunderground v.1.15,2014-08-27 14:10:00,
2014-08-27 09:20:00,69.6,68.7,30.02,North,9,5.0,13.0,97,0.00,,,0.01,Wunderground v.1.15,2014-08-27 14:20:00,
2014-08-27 09:30:00,69.6,68.7,30.03,NNE,26,7.0,13.0,97,0.00,,,0.01,Wunderground v.1.15,2014-08-27 14:30:00,
2014-08-27 09:35:00,69.7,68.8,30.03,NE,42,7.0,13.0,97,0.00,,,0.01,Wunderground v.1.15,2014-08-27 14:35:00,
2014-08-27 09:40:00,69.8,68.9,30.03,NE,47,7.0,7.0,97,0.00,,,0.01,Wunderground v.1.15,2014-08-27 14:40:00,
2014-08-27 09:45:00,70.0,69.1,30.03,ENE,66,7.0,11.0,97,0.00,,,0.01,Wunderground v.1.15,2014-08-27 14:45:00,
2014-08-27 09:55:00,70.2,69.3,30.04,North,10,8.0,13.0,97,0.00,,,0.01,Wunderground v.1.15,2014-08-27 14:55:00,
2014-08-27 10:00:00,70.2,69.3,30.05,North,355,7.0,13.0,97,0.00,,,0.01,Wunderground v.1.15,2014-08-27 15:00:00,
2014-08-27 10:05:00,70.0,69.1,30.04,ENE,59,8.0,13.0,97,0.00,,,0.01,Wunderground v.1.15,2014-08-27 15:05:00,
2014-08-27 10:10:00,69.8,68.9,30.05,NNE,19,9.0,13.0,97,0.00,,,0.01,Wunderground v.1.15,2014-08-27 15:10:00,
2014-08-27 10:15:00,69.5,68.3,30.05,North,360,9.0,13.0,96,0.00,,,0.01,Wunderground v.1.15,2014-08-27 15:15:00,
2014-08-27 10:25:00,69.2,68.3,30.04,NE,48,8.0,13.0,97,0.00,,,0.01,Wunderground v.1.15,2014-08-27 15:25:00,
2014-08-27 10:35:00,69.3,68.4,30.04,NNE,21,9.0,13.0,97,0.00,,,0.01,Wunderground v.1.15,2014-08-27 15:35:00,
2014-08-27 10:40:00,69.4,68.5,30.04,ENE,65,9.0,9.0,97,0.00,,,0.01,Wunderground v.1.15,2014-08-27 15:40:00,
2014-08-27 10:45:00,69.5,68.6,30.04,NE,55,10.0,10.0,97,0.00,,,0.01,Wunderground v.1.15,2014-08-27 15:45:00,
2014-08-27 10:50:00,69.7,68.8,30.05,NE,48,11.0,11.0,97,0.00,,,0.01,Wunderground v.1.15,2014-08-27 15:50:00,
2014-08-27 11:00:00,69.7,68.8,30.06,ENE,71,10.0,10.0,97,0.00,,,0.01,Wunderground v.1.15,2014-08-27 16:00:00,
2014-08-27 11:05:00,69.6,68.4,30.06,NE,48,9.0,13.0,96,0.00,,,0.01,Wunderground v.1.15,2014-08-27 16:05:00,
2014-08-27 11:10:00,69.4,68.2,30.07,North,355,9.0,13.0,96,0.00,,,0.01,Wunderground v.1.15,2014-08-27 16:10:00,
2014-08-27 11:15:00,69.3,68.4,30.06,ENE,59,10.0,13.0,97,0.00,,,0.02,Wunderground v.1.15,2014-08-27 16:15:00,
2014-08-27 11:20:00,69.3,68.4,30.06,NE,50,10.0,13.0,97,0.00,,,0.02,Wunderground v.1.15,2014-08-27 16:20:00,
2014-08-27 11:30:00,69.4,68.5,30.06,NE,44,9.0,13.0,97,0.06,,,0.03,Wunderground v.1.15,2014-08-27 16:30:00,
2014-08-27 11:40:00,69.3,68.4,30.07,NNE,28,8.0,13.0,97,0.07,,,0.04,Wunderground v.1.15,2014-08-27 16:40:00,
2014-08-27 11:45:00,69.2,68.3,30.07,North,360,7.0,13.0,97,0.06,,,0.04,Wunderground v.1.15,2014-08-27 16:45:00,
2014-08-27 11:50:00,69.2,68.3,30.06,NNE,32,7.0,13.0,97,0.04,,,0.05,Wunderground v.1.15,2014-08-27 16:50:00,
2014-08-27 11:55:00,69.0,68.1,30.06,NE,55,9.0,13.0,97,1.59,,,0.14,Wunderground v.1.15,2014-08-27 16:55:00,
2014-08-27 12:00:00,69.0,68.1,30.06,NNW,335,9.0,9.0,97,0.28,,,0.18,Wunderground v.1.15,2014-08-27 17:00:00,
2014-08-27 12:10:00,69.0,68.1,30.06,ENE,65,7.0,7.0,97,0.17,,,0.22,Wunderground v.1.15,2014-08-27 17:10:00,
2014-08-27 12:15:00,69.0,68.1,30.06,ENE,69,6.0,13.0,97,0.16,,,0.23,Wunderground v.1.15,2014-08-27 17:15:00,
2014-08-27 12:20:00,69.0,68.1,30.06,NE,52,6.0,13.0,97,0.30,,,0.25,Wunderground v.1.15,2014-08-27 17:20:00,
2014-08-27 12:25:00,69.0,68.1,30.06,ENE,57,7.0,13.0,97,0.22,,,0.27,Wunderground v.1.15,2014-08-27 17:25:00,
2014-08-27 12:35:00,69.0,68.1,30.06,ENE,60,9.0,12.0,97,1.64,,,0.48,Wunderground v.1.15,2014-08-27 17:35:00,
2014-08-27 12:40:00,68.9,68.0,30.06,ENE,62,11.0,13.0,97,1.99,,,0.65,Wunderground v.1.15,2014-08-27 17:40:00,
2014-08-27 12:45:00,68.9,68.0,30.05,ENE,63,12.0,13.0,97,2.89,,,0.90,Wunderground v.1.15,2014-08-27 17:45:00,
2014-08-27 12:50:00,68.8,67.9,30.05,ENE,57,13.0,13.0,97,0.35,,,0.96,Wunderground v.1.15,2014-08-27 17:50:00,
2014-08-27 12:55:00,69.0,68.1,30.04,NE,43,13.0,13.0,97,0.15,,,0.97,Wunderground v.1.15,2014-08-27 17:55:00,
2014-08-27 13:00:00,69.2,68.6,30.04,ENE,67,10.0,10.0,98,0.08,,,0.97,Wunderground v.1.15,2014-08-27 18:00:00,
2014-08-27 13:05:00,69.5,68.9,30.04,ENE,61,7.0,11.0,98,0.08,,,0.98,Wunderground v.1.15,2014-08-27 18:05:00,
2014-08-27 13:15:00,70.1,69.5,30.03,ESE,107,10.0,13.0,98,0.04,,,0.98,Wunderground v.1.15,2014-08-27 18:15:00,
2014-08-27 13:20:00,70.2,69.6,30.04,ENE,63,11.0,13.0,98,0.00,,,0.98,Wunderground v.1.15,2014-08-27 18:20:00,
2014-08-27 13:30:00,70.1,69.2,30.03,NNE,30,11.0,14.0,97,0.00,,,0.98,Wunderground v.1.15,2014-08-27 18:30:00,
2014-08-27 13:35:00,70.0,69.1,30.03,NE,45,14.0,14.0,97,0.00,,,0.98,Wunderground v.1.15,2014-08-27 18:35:00,
2014-08-27 13:40:00,70.0,69.1,30.03,NE,45,15.0,17.0,97,0.00,,,0.98,Wunderground v.1.15,2014-08-27 18:40:00,
2014-08-27 13:50:00,70.0,69.1,30.02,ENE,68,15.0,15.0,97,0.00,,,0.98,Wunderground v.1.15,2014-08-27 18:50:00,
2014-08-27 13:55:00,70.0,69.1,30.02,NE,52,15.0,15.0,97,0.00,,,0.98,Wunderground v.1.15,2014-08-27 18:55:00,
2014-08-27 14:00:00,70.0,69.1,30.03,ESE,117,12.0,12.0,97,0.00,,,0.98,Wunderground v.1.15,2014-08-27 19:00:00,
2014-08-27 14:05:00,70.0,69.1,30.03,ENE,77,9.0,13.0,97,0.00,,,0.98,Wunderground v.1.15,2014-08-27 19:05:00,
2014-08-27 14:15:00,70.4,69.8,30.02,ESE,110,10.0,16.0,98,0.00,,,0.98,Wunderground v.1.15,2014-08-27 19:15:00,
2014-08-27 14:25:00,70.8,69.9,30.02,East,90,10.0,13.0,97,0.00,,,0.98,Wunderground v.1.15,2014-08-27 19:25:00,
2014-08-27 14:30:00,71.1,70.5,30.02,East,93,8.0,13.0,98,0.00,,,0.98,Wunderground v.1.15,2014-08-27 19:30:00,
2014-08-27 14:35:00,71.2,70.3,30.02,East,93,7.0,13.0,97,0.00,,,0.98,Wunderground v.1.15,2014-08-27 19:35:00,
2014-08-27 14:40:00,71.4,70.5,30.02,SE,133,8.0,8.0,97,0.00,,,0.98,Wunderground v.1.15,2014-08-27 19:40:00,
2014-08-27 14:50:00,71.6,70.4,30.02,SE,127,8.0,8.0,96,0.00,,,0.98,Wunderground v.1.15,2014-08-27 19:50:00,